Aviation Digital Data Service (ADDS)

Output produced by TAFs form (0604 UTC 18 January 2018)
found at http://www.aviationweather.gov/adds/tafs/
 
METAR text: RJKA 180500Z 31008KT 270V350 9999 FEW030 BKN035 20/11 Q1018
Conditions at: RJKA (AMAMI AIRPORT , JP) observed 0500 UTC 18 January 2018
Temperature: 20.0°C (68°F)
Dewpoint: 11.0°C (52°F) [RH = 56%]
Pressure (altimeter): 30.06 inches Hg (1018.0 mb)
Winds: from the NW (310 degrees) at 9 MPH (8 knots; 4.2 m/s)
Visibility: 6 or more miles (10+ km)
Ceiling: 3500 feet AGL
Clouds: few clouds at 3000 feet AGL
broken clouds at 3500 feet AGL
Weather: no significant weather observed at this time